sensor_id;sensor_type;location;lat;lon;timestamp;P1;durP1;ratioP1;P2;durP2;ratioP2
19897;SDS011;10111;50.814;4.572;2022-07-24T00:00:52;17.13;;;12.73;;
19897;SDS011;10111;50.814;4.572;2022-07-24T00:03:18;15.00;;;12.17;;
19897;SDS011;10111;50.814;4.572;2022-07-24T00:05:43;17.10;;;12.83;;
19897;SDS011;10111;50.814;4.572;2022-07-24T00:08:09;14.70;;;11.90;;
19897;SDS011;10111;50.814;4.572;2022-07-24T00:10:35;15.63;;;12.97;;
19897;SDS011;10111;50.814;4.572;2022-07-24T00:13:01;16.73;;;12.43;;
19897;SDS011;10111;50.814;4.572;2022-07-24T00:15:27;20.27;;;12.87;;
19897;SDS011;10111;50.814;4.572;2022-07-24T00:17:52;15.83;;;12.23;;
19897;SDS011;10111;50.814;4.572;2022-07-24T00:20:18;17.63;;;12.67;;
19897;SDS011;10111;50.814;4.572;2022-07-24T00:22:44;16.37;;;12.33;;
19897;SDS011;10111;50.814;4.572;2022-07-24T00:25:09;15.63;;;13.03;;
19897;SDS011;10111;50.814;4.572;2022-07-24T00:27:35;16.20;;;12.00;;
19897;SDS011;10111;50.814;4.572;2022-07-24T00:30:00;15.90;;;13.57;;
19897;SDS011;10111;50.814;4.572;2022-07-24T00:32:26;16.00;;;12.30;;
19897;SDS011;10111;50.814;4.572;2022-07-24T00:34:52;16.60;;;13.17;;
19897;SDS011;10111;50.814;4.572;2022-07-24T00:37:17;14.53;;;12.90;;
19897;SDS011;10111;50.814;4.572;2022-07-24T00:39:43;16.17;;;11.90;;
19897;SDS011;10111;50.814;4.572;2022-07-24T00:42:10;17.80;;;12.47;;
19897;SDS011;10111;50.814;4.572;2022-07-24T00:44:36;15.80;;;12.17;;
19897;SDS011;10111;50.814;4.572;2022-07-24T00:47:01;18.53;;;13.13;;
19897;SDS011;10111;50.814;4.572;2022-07-24T00:49:27;17.27;;;13.23;;
19897;SDS011;10111;50.814;4.572;2022-07-24T00:51:53;14.67;;;11.67;;
19897;SDS011;10111;50.814;4.572;2022-07-24T00:54:19;14.33;;;12.20;;
19897;SDS011;10111;50.814;4.572;2022-07-24T00:56:47;12.93;;;10.97;;
19897;SDS011;10111;50.814;4.572;2022-07-24T00:59:14;18.97;;;12.43;;
19897;SDS011;10111;50.814;4.572;2022-07-24T01:01:41;15.20;;;12.00;;
19897;SDS011;10111;50.814;4.572;2022-07-24T01:04:07;16.30;;;10.97;;
19897;SDS011;10111;50.814;4.572;2022-07-24T01:06:33;15.23;;;11.13;;
19897;SDS011;10111;50.814;4.572;2022-07-24T01:08:59;15.20;;;11.77;;
19897;SDS011;10111;50.814;4.572;2022-07-24T01:11:25;13.63;;;10.67;;
19897;SDS011;10111;50.814;4.572;2022-07-24T01:13:51;13.30;;;10.37;;
19897;SDS011;10111;50.814;4.572;2022-07-24T01:16:17;12.70;;;10.90;;
19897;SDS011;10111;50.814;4.572;2022-07-24T01:18:43;14.23;;;10.60;;
19897;SDS011;10111;50.814;4.572;2022-07-24T01:21:09;13.47;;;10.80;;
19897;SDS011;10111;50.814;4.572;2022-07-24T01:23:35;14.33;;;11.10;;
19897;SDS011;10111;50.814;4.572;2022-07-24T01:26:01;14.30;;;10.47;;
19897;SDS011;10111;50.814;4.572;2022-07-24T01:28:27;12.63;;;9.97;;
19897;SDS011;10111;50.814;4.572;2022-07-24T01:30:53;11.90;;;8.97;;
19897;SDS011;10111;50.814;4.572;2022-07-24T01:33:19;12.47;;;9.67;;
19897;SDS011;10111;50.814;4.572;2022-07-24T01:35:45;12.13;;;10.20;;
19897;SDS011;10111;50.814;4.572;2022-07-24T01:38:12;10.97;;;9.43;;
19897;SDS011;10111;50.814;4.572;2022-07-24T01:40:40;11.43;;;10.23;;
19897;SDS011;10111;50.814;4.572;2022-07-24T01:43:06;11.90;;;10.70;;
19897;SDS011;10111;50.814;4.572;2022-07-24T01:45:32;15.03;;;10.97;;
19897;SDS011;10111;50.814;4.572;2022-07-24T01:47:58;15.63;;;11.80;;
19897;SDS011;10111;50.814;4.572;2022-07-24T01:50:23;15.90;;;11.47;;
19897;SDS011;10111;50.814;4.572;2022-07-24T01:52:49;17.10;;;12.27;;
19897;SDS011;10111;50.814;4.572;2022-07-24T01:55:15;17.90;;;15.00;;
19897;SDS011;10111;50.814;4.572;2022-07-24T01:57:41;21.07;;;13.27;;
19897;SDS011;10111;50.814;4.572;2022-07-24T02:00:07;15.40;;;12.37;;
19897;SDS011;10111;50.814;4.572;2022-07-24T02:02:37;18.03;;;14.07;;
19897;SDS011;10111;50.814;4.572;2022-07-24T02:05:04;17.43;;;13.57;;
19897;SDS011;10111;50.814;4.572;2022-07-24T02:07:30;21.13;;;14.87;;
19897;SDS011;10111;50.814;4.572;2022-07-24T02:09:56;20.47;;;13.53;;
19897;SDS011;10111;50.814;4.572;2022-07-24T02:12:22;21.20;;;15.30;;
19897;SDS011;10111;50.814;4.572;2022-07-24T02:14:47;20.53;;;14.80;;
19897;SDS011;10111;50.814;4.572;2022-07-24T02:17:13;20.00;;;14.47;;
19897;SDS011;10111;50.814;4.572;2022-07-24T02:19:39;21.40;;;14.40;;
19897;SDS011;10111;50.814;4.572;2022-07-24T02:22:04;19.77;;;15.50;;
19897;SDS011;10111;50.814;4.572;2022-07-24T02:24:30;20.60;;;15.27;;
19897;SDS011;10111;50.814;4.572;2022-07-24T02:26:56;23.07;;;15.77;;
19897;SDS011;10111;50.814;4.572;2022-07-24T02:29:21;24.27;;;16.47;;
19897;SDS011;10111;50.814;4.572;2022-07-24T02:31:47;21.13;;;15.77;;
19897;SDS011;10111;50.814;4.572;2022-07-24T02:34:12;27.83;;;18.27;;
19897;SDS011;10111;50.814;4.572;2022-07-24T02:36:38;27.30;;;19.37;;
19897;SDS011;10111;50.814;4.572;2022-07-24T02:39:04;24.53;;;17.53;;
19897;SDS011;10111;50.814;4.572;2022-07-24T02:41:29;22.07;;;17.13;;
19897;SDS011;10111;50.814;4.572;2022-07-24T02:43:55;21.70;;;16.13;;
19897;SDS011;10111;50.814;4.572;2022-07-24T02:46:21;25.33;;;17.57;;
19897;SDS011;10111;50.814;4.572;2022-07-24T02:48:46;24.93;;;17.63;;
19897;SDS011;10111;50.814;4.572;2022-07-24T02:51:12;25.13;;;18.87;;
19897;SDS011;10111;50.814;4.572;2022-07-24T02:53:38;24.20;;;17.47;;
19897;SDS011;10111;50.814;4.572;2022-07-24T02:56:04;33.13;;;17.17;;
19897;SDS011;10111;50.814;4.572;2022-07-24T02:58:29;24.53;;;16.83;;
19897;SDS011;10111;50.814;4.572;2022-07-24T03:00:55;22.17;;;16.10;;
19897;SDS011;10111;50.814;4.572;2022-07-24T03:03:21;21.63;;;17.37;;
19897;SDS011;10111;50.814;4.572;2022-07-24T03:05:47;23.07;;;17.00;;
19897;SDS011;10111;50.814;4.572;2022-07-24T03:08:12;25.77;;;17.33;;
19897;SDS011;10111;50.814;4.572;2022-07-24T03:10:38;24.47;;;17.13;;
19897;SDS011;10111;50.814;4.572;2022-07-24T03:13:04;26.47;;;19.23;;
19897;SDS011;10111;50.814;4.572;2022-07-24T03:15:30;25.43;;;18.23;;
19897;SDS011;10111;50.814;4.572;2022-07-24T03:17:56;25.13;;;18.07;;
19897;SDS011;10111;50.814;4.572;2022-07-24T03:20:22;25.40;;;18.30;;
19897;SDS011;10111;50.814;4.572;2022-07-24T03:22:50;23.60;;;17.37;;
19897;SDS011;10111;50.814;4.572;2022-07-24T03:25:16;22.77;;;17.43;;
19897;SDS011;10111;50.814;4.572;2022-07-24T03:27:42;22.77;;;17.10;;
19897;SDS011;10111;50.814;4.572;2022-07-24T03:30:08;23.70;;;18.23;;
19897;SDS011;10111;50.814;4.572;2022-07-24T03:32:34;25.60;;;17.97;;
19897;SDS011;10111;50.814;4.572;2022-07-24T03:35:00;25.93;;;18.40;;
19897;SDS011;10111;50.814;4.572;2022-07-24T03:37:25;29.80;;;18.20;;
19897;SDS011;10111;50.814;4.572;2022-07-24T03:39:51;22.40;;;16.83;;
19897;SDS011;10111;50.814;4.572;2022-07-24T03:42:17;23.43;;;16.33;;
19897;SDS011;10111;50.814;4.572;2022-07-24T03:44:42;22.57;;;17.33;;
19897;SDS011;10111;50.814;4.572;2022-07-24T03:47:08;24.80;;;17.50;;
19897;SDS011;10111;50.814;4.572;2022-07-24T03:49:34;23.60;;;17.37;;
19897;SDS011;10111;50.814;4.572;2022-07-24T03:51:59;27.43;;;19.67;;
19897;SDS011;10111;50.814;4.572;2022-07-24T03:54:25;27.90;;;19.27;;
19897;SDS011;10111;50.814;4.572;2022-07-24T03:56:51;28.77;;;20.40;;
19897;SDS011;10111;50.814;4.572;2022-07-24T03:59:17;27.67;;;19.23;;
19897;SDS011;10111;50.814;4.572;2022-07-24T04:01:43;24.90;;;18.90;;
19897;SDS011;10111;50.814;4.572;2022-07-24T04:04:08;23.73;;;18.10;;
19897;SDS011;10111;50.814;4.572;2022-07-24T04:06:34;23.33;;;17.33;;
19897;SDS011;10111;50.814;4.572;2022-07-24T04:09:00;22.63;;;16.80;;
19897;SDS011;10111;50.814;4.572;2022-07-24T04:11:27;21.70;;;15.90;;
19897;SDS011;10111;50.814;4.572;2022-07-24T04:13:52;24.43;;;16.33;;
19897;SDS011;10111;50.814;4.572;2022-07-24T04:16:18;21.27;;;16.47;;
19897;SDS011;10111;50.814;4.572;2022-07-24T04:18:44;22.53;;;16.53;;
19897;SDS011;10111;50.814;4.572;2022-07-24T04:21:09;25.57;;;18.30;;
19897;SDS011;10111;50.814;4.572;2022-07-24T04:23:35;26.03;;;19.77;;
19897;SDS011;10111;50.814;4.572;2022-07-24T04:26:01;27.03;;;18.10;;
19897;SDS011;10111;50.814;4.572;2022-07-24T04:28:27;26.63;;;19.30;;
19897;SDS011;10111;50.814;4.572;2022-07-24T04:30:53;24.77;;;18.23;;
19897;SDS011;10111;50.814;4.572;2022-07-24T04:33:18;24.93;;;17.70;;
19897;SDS011;10111;50.814;4.572;2022-07-24T04:35:44;27.10;;;19.73;;
19897;SDS011;10111;50.814;4.572;2022-07-24T04:38:10;25.03;;;18.83;;
19897;SDS011;10111;50.814;4.572;2022-07-24T04:40:35;25.50;;;18.40;;
19897;SDS011;10111;50.814;4.572;2022-07-24T04:43:01;23.87;;;17.30;;
19897;SDS011;10111;50.814;4.572;2022-07-24T04:45:27;30.13;;;19.03;;
19897;SDS011;10111;50.814;4.572;2022-07-24T04:47:52;33.70;;;20.63;;
19897;SDS011;10111;50.814;4.572;2022-07-24T04:50:18;25.97;;;18.53;;
19897;SDS011;10111;50.814;4.572;2022-07-24T04:52:43;29.40;;;19.83;;
19897;SDS011;10111;50.814;4.572;2022-07-24T04:55:09;26.90;;;19.10;;
19897;SDS011;10111;50.814;4.572;2022-07-24T04:57:35;25.57;;;19.27;;
19897;SDS011;10111;50.814;4.572;2022-07-24T05:00:01;30.43;;;21.23;;
19897;SDS011;10111;50.814;4.572;2022-07-24T05:02:27;30.90;;;20.37;;
19897;SDS011;10111;50.814;4.572;2022-07-24T05:04:53;26.20;;;18.13;;
19897;SDS011;10111;50.814;4.572;2022-07-24T05:07:18;30.60;;;21.40;;
19897;SDS011;10111;50.814;4.572;2022-07-24T05:09:44;30.57;;;20.57;;
19897;SDS011;10111;50.814;4.572;2022-07-24T05:12:10;31.90;;;22.77;;
19897;SDS011;10111;50.814;4.572;2022-07-24T05:14:35;31.53;;;21.33;;
19897;SDS011;10111;50.814;4.572;2022-07-24T05:17:01;31.27;;;22.23;;
19897;SDS011;10111;50.814;4.572;2022-07-24T05:19:27;27.47;;;19.37;;
19897;SDS011;10111;50.814;4.572;2022-07-24T05:21:52;27.43;;;19.30;;
19897;SDS011;10111;50.814;4.572;2022-07-24T05:24:18;29.13;;;20.80;;
19897;SDS011;10111;50.814;4.572;2022-07-24T05:26:43;27.93;;;20.00;;
19897;SDS011;10111;50.814;4.572;2022-07-24T05:29:09;27.60;;;19.37;;
19897;SDS011;10111;50.814;4.572;2022-07-24T05:31:35;26.17;;;18.67;;
19897;SDS011;10111;50.814;4.572;2022-07-24T05:34:00;27.20;;;17.73;;
19897;SDS011;10111;50.814;4.572;2022-07-24T05:36:27;23.30;;;16.47;;
19897;SDS011;10111;50.814;4.572;2022-07-24T05:38:53;25.47;;;17.87;;
19897;SDS011;10111;50.814;4.572;2022-07-24T05:41:19;24.13;;;16.83;;
19897;SDS011;10111;50.814;4.572;2022-07-24T05:43:44;25.07;;;17.03;;
19897;SDS011;10111;50.814;4.572;2022-07-24T05:46:10;22.80;;;16.23;;
19897;SDS011;10111;50.814;4.572;2022-07-24T05:48:36;20.73;;;14.47;;
19897;SDS011;10111;50.814;4.572;2022-07-24T05:51:01;25.10;;;16.33;;
19897;SDS011;10111;50.814;4.572;2022-07-24T05:53:28;21.73;;;15.07;;
19897;SDS011;10111;50.814;4.572;2022-07-24T05:55:53;24.37;;;15.67;;
19897;SDS011;10111;50.814;4.572;2022-07-24T05:58:19;19.73;;;14.57;;
19897;SDS011;10111;50.814;4.572;2022-07-24T06:00:45;25.03;;;16.33;;
19897;SDS011;10111;50.814;4.572;2022-07-24T06:03:11;22.07;;;14.93;;
19897;SDS011;10111;50.814;4.572;2022-07-24T06:05:37;20.07;;;14.57;;
19897;SDS011;10111;50.814;4.572;2022-07-24T06:08:03;20.07;;;13.47;;
19897;SDS011;10111;50.814;4.572;2022-07-24T06:10:29;22.20;;;15.60;;
19897;SDS011;10111;50.814;4.572;2022-07-24T06:12:55;21.73;;;14.93;;
19897;SDS011;10111;50.814;4.572;2022-07-24T06:15:20;21.87;;;14.07;;
19897;SDS011;10111;50.814;4.572;2022-07-24T06:17:46;19.00;;;13.00;;
19897;SDS011;10111;50.814;4.572;2022-07-24T06:20:12;21.60;;;13.27;;
19897;SDS011;10111;50.814;4.572;2022-07-24T06:22:38;20.40;;;13.30;;
19897;SDS011;10111;50.814;4.572;2022-07-24T06:25:05;19.73;;;12.47;;
19897;SDS011;10111;50.814;4.572;2022-07-24T06:27:31;17.07;;;10.70;;
19897;SDS011;10111;50.814;4.572;2022-07-24T06:29:57;17.27;;;11.20;;
19897;SDS011;10111;50.814;4.572;2022-07-24T06:32:22;13.67;;;10.03;;
19897;SDS011;10111;50.814;4.572;2022-07-24T06:34:48;23.83;;;13.13;;
19897;SDS011;10111;50.814;4.572;2022-07-24T06:37:14;13.60;;;9.57;;
19897;SDS011;10111;50.814;4.572;2022-07-24T06:39:40;14.97;;;10.07;;
19897;SDS011;10111;50.814;4.572;2022-07-24T06:42:05;16.07;;;9.67;;
19897;SDS011;10111;50.814;4.572;2022-07-24T06:44:31;15.27;;;10.30;;
19897;SDS011;10111;50.814;4.572;2022-07-24T06:46:58;19.63;;;9.43;;
19897;SDS011;10111;50.814;4.572;2022-07-24T06:49:24;12.77;;;10.37;;
19897;SDS011;10111;50.814;4.572;2022-07-24T06:51:50;17.90;;;11.10;;
19897;SDS011;10111;50.814;4.572;2022-07-24T06:54:15;21.70;;;9.93;;
19897;SDS011;10111;50.814;4.572;2022-07-24T06:56:42;12.43;;;9.30;;
19897;SDS011;10111;50.814;4.572;2022-07-24T06:59:08;14.73;;;10.13;;
19897;SDS011;10111;50.814;4.572;2022-07-24T07:01:33;14.60;;;8.57;;
19897;SDS011;10111;50.814;4.572;2022-07-24T07:03:59;11.40;;;8.93;;
19897;SDS011;10111;50.814;4.572;2022-07-24T07:06:25;13.60;;;8.20;;
19897;SDS011;10111;50.814;4.572;2022-07-24T07:08:50;13.00;;;6.60;;
19897;SDS011;10111;50.814;4.572;2022-07-24T07:11:16;8.43;;;6.77;;
19897;SDS011;10111;50.814;4.572;2022-07-24T07:13:41;7.83;;;5.87;;
19897;SDS011;10111;50.814;4.572;2022-07-24T07:16:07;10.67;;;6.90;;
19897;SDS011;10111;50.814;4.572;2022-07-24T07:18:33;7.07;;;5.87;;
19897;SDS011;10111;50.814;4.572;2022-07-24T07:21:01;10.77;;;6.17;;
19897;SDS011;10111;50.814;4.572;2022-07-24T07:23:27;8.43;;;5.30;;
19897;SDS011;10111;50.814;4.572;2022-07-24T07:25:52;6.90;;;5.47;;
19897;SDS011;10111;50.814;4.572;2022-07-24T07:28:19;5.57;;;4.20;;
19897;SDS011;10111;50.814;4.572;2022-07-24T07:30:45;6.00;;;4.80;;
19897;SDS011;10111;50.814;4.572;2022-07-24T07:33:11;7.07;;;4.50;;
19897;SDS011;10111;50.814;4.572;2022-07-24T07:35:36;6.17;;;4.47;;
19897;SDS011;10111;50.814;4.572;2022-07-24T07:38:02;5.97;;;4.50;;
19897;SDS011;10111;50.814;4.572;2022-07-24T07:40:28;5.47;;;4.03;;
19897;SDS011;10111;50.814;4.572;2022-07-24T07:42:53;5.37;;;3.97;;
19897;SDS011;10111;50.814;4.572;2022-07-24T07:45:19;3.67;;;3.37;;
19897;SDS011;10111;50.814;4.572;2022-07-24T07:47:45;4.30;;;3.83;;
19897;SDS011;10111;50.814;4.572;2022-07-24T07:50:10;5.70;;;3.60;;
19897;SDS011;10111;50.814;4.572;2022-07-24T07:52:37;5.57;;;3.87;;
19897;SDS011;10111;50.814;4.572;2022-07-24T07:55:03;3.97;;;2.70;;
19897;SDS011;10111;50.814;4.572;2022-07-24T07:57:30;4.75;;;3.60;;
19897;SDS011;10111;50.814;4.572;2022-07-24T07:59:55;4.60;;;3.55;;
19897;SDS011;10111;50.814;4.572;2022-07-24T08:02:21;5.10;;;2.83;;
19897;SDS011;10111;50.814;4.572;2022-07-24T08:04:47;3.67;;;3.13;;
19897;SDS011;10111;50.814;4.572;2022-07-24T08:07:12;2.75;;;2.42;;
19897;SDS011;10111;50.814;4.572;2022-07-24T08:09:38;4.22;;;2.47;;
19897;SDS011;10111;50.814;4.572;2022-07-24T08:12:04;3.28;;;2.72;;
19897;SDS011;10111;50.814;4.572;2022-07-24T08:14:30;3.65;;;2.85;;
19897;SDS011;10111;50.814;4.572;2022-07-24T08:16:57;3.33;;;2.58;;
19897;SDS011;10111;50.814;4.572;2022-07-24T08:19:22;3.17;;;2.28;;
19897;SDS011;10111;50.814;4.572;2022-07-24T08:21:48;2.45;;;2.25;;
19897;SDS011;10111;50.814;4.572;2022-07-24T08:24:14;2.92;;;2.63;;
19897;SDS011;10111;50.814;4.572;2022-07-24T08:26:45;5.53;;;2.72;;
19897;SDS011;10111;50.814;4.572;2022-07-24T08:29:12;2.85;;;2.65;;
19897;SDS011;10111;50.814;4.572;2022-07-24T08:31:37;3.50;;;2.40;;
19897;SDS011;10111;50.814;4.572;2022-07-24T08:34:03;3.05;;;2.50;;
19897;SDS011;10111;50.814;4.572;2022-07-24T08:36:30;2.35;;;2.15;;
19897;SDS011;10111;50.814;4.572;2022-07-24T08:38:56;2.95;;;2.60;;
19897;SDS011;10111;50.814;4.572;2022-07-24T08:41:22;1.85;;;1.63;;
19897;SDS011;10111;50.814;4.572;2022-07-24T08:43:47;2.78;;;2.40;;
19897;SDS011;10111;50.814;4.572;2022-07-24T08:46:14;2.10;;;1.90;;
19897;SDS011;10111;50.814;4.572;2022-07-24T08:48:44;2.17;;;2.00;;
19897;SDS011;10111;50.814;4.572;2022-07-24T08:51:14;2.75;;;1.88;;
19897;SDS011;10111;50.814;4.572;2022-07-24T08:53:40;2.53;;;2.00;;
19897;SDS011;10111;50.814;4.572;2022-07-24T08:56:07;1.92;;;1.73;;
19897;SDS011;10111;50.814;4.572;2022-07-24T08:58:38;3.85;;;3.00;;
19897;SDS011;10111;50.814;4.572;2022-07-24T09:01:05;1.95;;;1.85;;
19897;SDS011;10111;50.814;4.572;2022-07-24T09:03:38;5.03;;;2.25;;
19897;SDS011;10111;50.814;4.572;2022-07-24T09:06:05;2.38;;;1.70;;
19897;SDS011;10111;50.814;4.572;2022-07-24T09:08:32;3.55;;;1.58;;
19897;SDS011;10111;50.814;4.572;2022-07-24T09:10:59;1.65;;;1.55;;
19897;SDS011;10111;50.814;4.572;2022-07-24T09:13:29;1.83;;;1.73;;
19897;SDS011;10111;50.814;4.572;2022-07-24T09:16:19;1.90;;;1.58;;
19897;SDS011;10111;50.814;4.572;2022-07-24T09:18:48;3.08;;;2.35;;
19897;SDS011;10111;50.814;4.572;2022-07-24T09:21:15;1.83;;;1.52;;
19897;SDS011;10111;50.814;4.572;2022-07-24T09:23:43;2.33;;;1.85;;
19897;SDS011;10111;50.814;4.572;2022-07-24T09:26:09;3.15;;;2.20;;
19897;SDS011;10111;50.814;4.572;2022-07-24T09:28:48;1.40;;;1.30;;
19897;SDS011;10111;50.814;4.572;2022-07-24T09:31:15;3.42;;;1.55;;
19897;SDS011;10111;50.814;4.572;2022-07-24T09:33:41;2.45;;;2.25;;
19897;SDS011;10111;50.814;4.572;2022-07-24T09:36:14;1.33;;;1.20;;
19897;SDS011;10111;50.814;4.572;2022-07-24T09:38:50;2.75;;;1.60;;
19897;SDS011;10111;50.814;4.572;2022-07-24T09:41:23;3.22;;;2.70;;
19897;SDS011;10111;50.814;4.572;2022-07-24T09:43:59;1.67;;;1.50;;
19897;SDS011;10111;50.814;4.572;2022-07-24T09:46:27;2.20;;;1.55;;
19897;SDS011;10111;50.814;4.572;2022-07-24T09:48:54;1.48;;;1.35;;
19897;SDS011;10111;50.814;4.572;2022-07-24T09:51:22;1.98;;;1.67;;
19897;SDS011;10111;50.814;4.572;2022-07-24T09:53:54;3.28;;;2.42;;
19897;SDS011;10111;50.814;4.572;2022-07-24T09:56:21;2.08;;;1.95;;
19897;SDS011;10111;50.814;4.572;2022-07-24T09:58:49;2.05;;;1.95;;
19897;SDS011;10111;50.814;4.572;2022-07-24T10:01:22;2.22;;;2.03;;
19897;SDS011;10111;50.814;4.572;2022-07-24T10:03:50;2.53;;;2.10;;
19897;SDS011;10111;50.814;4.572;2022-07-24T10:06:19;1.60;;;1.50;;
19897;SDS011;10111;50.814;4.572;2022-07-24T10:08:47;2.80;;;1.98;;
19897;SDS011;10111;50.814;4.572;2022-07-24T10:11:15;1.52;;;1.42;;
19897;SDS011;10111;50.814;4.572;2022-07-24T10:13:42;2.75;;;2.40;;
19897;SDS011;10111;50.814;4.572;2022-07-24T10:18:49;2.30;;;1.83;;
19897;SDS011;10111;50.814;4.572;2022-07-24T10:26:36;3.85;;;1.70;;
19897;SDS011;10111;50.814;4.572;2022-07-24T10:31:54;2.40;;;2.20;;
19897;SDS011;10111;50.814;4.572;2022-07-24T10:34:25;2.63;;;1.58;;
19897;SDS011;10111;50.814;4.572;2022-07-24T10:37:23;4.05;;;2.03;;
19897;SDS011;10111;50.814;4.572;2022-07-24T10:45:34;2.03;;;1.77;;
19897;SDS011;10111;50.814;4.572;2022-07-24T10:53:26;2.03;;;1.55;;
19897;SDS011;10111;50.814;4.572;2022-07-24T10:56:13;3.33;;;1.90;;
19897;SDS011;10111;50.814;4.572;2022-07-24T10:59:04;1.98;;;1.45;;
19897;SDS011;10111;50.814;4.572;2022-07-24T11:04:23;4.97;;;1.33;;
19897;SDS011;10111;50.814;4.572;2022-07-24T11:10:00;1.80;;;1.70;;
19897;SDS011;10111;50.814;4.572;2022-07-24T11:12:32;3.38;;;1.88;;
19897;SDS011;10111;50.814;4.572;2022-07-24T11:15:06;1.90;;;1.45;;
19897;SDS011;10111;50.814;4.572;2022-07-24T11:17:51;2.35;;;1.63;;
19897;SDS011;10111;50.814;4.572;2022-07-24T11:20:18;1.65;;;1.55;;
19897;SDS011;10111;50.814;4.572;2022-07-24T11:22:49;1.75;;;1.65;;
19897;SDS011;10111;50.814;4.572;2022-07-24T11:25:26;1.95;;;1.38;;
19897;SDS011;10111;50.814;4.572;2022-07-24T11:27:57;4.22;;;1.95;;
19897;SDS011;10111;50.814;4.572;2022-07-24T11:30:38;3.78;;;2.25;;
19897;SDS011;10111;50.814;4.572;2022-07-24T11:33:11;2.15;;;1.88;;
19897;SDS011;10111;50.814;4.572;2022-07-24T11:35:37;1.60;;;1.50;;
19897;SDS011;10111;50.814;4.572;2022-07-24T11:38:05;1.80;;;1.70;;
19897;SDS011;10111;50.814;4.572;2022-07-24T11:40:31;1.80;;;1.58;;
19897;SDS011;10111;50.814;4.572;2022-07-24T11:42:59;3.00;;;1.90;;
19897;SDS011;10111;50.814;4.572;2022-07-24T11:45:29;2.95;;;2.25;;
19897;SDS011;10111;50.814;4.572;2022-07-24T11:47:55;4.90;;;2.00;;
19897;SDS011;10111;50.814;4.572;2022-07-24T11:50:22;2.75;;;2.20;;
19897;SDS011;10111;50.814;4.572;2022-07-24T11:52:49;2.17;;;1.98;;
19897;SDS011;10111;50.814;4.572;2022-07-24T11:55:17;2.05;;;1.85;;
19897;SDS011;10111;50.814;4.572;2022-07-24T11:57:48;2.30;;;2.10;;
19897;SDS011;10111;50.814;4.572;2022-07-24T12:00:16;10.00;;;2.60;;
19897;SDS011;10111;50.814;4.572;2022-07-24T12:02:45;2.75;;;2.50;;
19897;SDS011;10111;50.814;4.572;2022-07-24T12:05:12;2.70;;;2.05;;
19897;SDS011;10111;50.814;4.572;2022-07-24T12:07:38;2.83;;;2.10;;
19897;SDS011;10111;50.814;4.572;2022-07-24T12:10:04;3.67;;;2.50;;
19897;SDS011;10111;50.814;4.572;2022-07-24T12:12:34;2.75;;;2.47;;
19897;SDS011;10111;50.814;4.572;2022-07-24T12:15:12;2.42;;;2.22;;
19897;SDS011;10111;50.814;4.572;2022-07-24T12:17:55;2.33;;;2.05;;
19897;SDS011;10111;50.814;4.572;2022-07-24T12:20:33;2.45;;;2.17;;
19897;SDS011;10111;50.814;4.572;2022-07-24T12:23:05;3.95;;;2.67;;
19897;SDS011;10111;50.814;4.572;2022-07-24T12:25:32;2.30;;;2.00;;
19897;SDS011;10111;50.814;4.572;2022-07-24T12:28:03;3.38;;;2.42;;
19897;SDS011;10111;50.814;4.572;2022-07-24T12:30:39;3.70;;;2.53;;
19897;SDS011;10111;50.814;4.572;2022-07-24T12:38:26;3.92;;;2.05;;
19897;SDS011;10111;50.814;4.572;2022-07-24T12:41:00;4.15;;;2.75;;
19897;SDS011;10111;50.814;4.572;2022-07-24T12:43:30;2.38;;;2.17;;
19897;SDS011;10111;50.814;4.572;2022-07-24T12:46:06;2.45;;;2.00;;
19897;SDS011;10111;50.814;4.572;2022-07-24T12:48:35;3.33;;;1.85;;
19897;SDS011;10111;50.814;4.572;2022-07-24T12:51:05;2.60;;;2.40;;
19897;SDS011;10111;50.814;4.572;2022-07-24T12:53:37;2.63;;;2.42;;
19897;SDS011;10111;50.814;4.572;2022-07-24T12:56:06;2.50;;;2.30;;
19897;SDS011;10111;50.814;4.572;2022-07-24T12:58:49;4.00;;;2.53;;
19897;SDS011;10111;50.814;4.572;2022-07-24T13:01:19;3.08;;;2.40;;
19897;SDS011;10111;50.814;4.572;2022-07-24T13:04:03;2.97;;;2.78;;
19897;SDS011;10111;50.814;4.572;2022-07-24T13:06:33;2.58;;;2.35;;
19897;SDS011;10111;50.814;4.572;2022-07-24T13:09:07;2.17;;;1.80;;
19897;SDS011;10111;50.814;4.572;2022-07-24T13:11:34;2.88;;;2.22;;
19897;SDS011;10111;50.814;4.572;2022-07-24T13:14:04;3.85;;;2.30;;
19897;SDS011;10111;50.814;4.572;2022-07-24T13:16:31;4.13;;;2.10;;
19897;SDS011;10111;50.814;4.572;2022-07-24T13:18:59;2.70;;;2.30;;
19897;SDS011;10111;50.814;4.572;2022-07-24T13:21:25;2.65;;;2.45;;
19897;SDS011;10111;50.814;4.572;2022-07-24T13:23:52;2.65;;;2.35;;
19897;SDS011;10111;50.814;4.572;2022-07-24T13:26:18;2.28;;;2.08;;
19897;SDS011;10111;50.814;4.572;2022-07-24T13:28:44;2.67;;;2.20;;
19897;SDS011;10111;50.814;4.572;2022-07-24T13:31:10;2.53;;;2.00;;
19897;SDS011;10111;50.814;4.572;2022-07-24T13:33:36;2.45;;;2.22;;
19897;SDS011;10111;50.814;4.572;2022-07-24T13:36:02;2.58;;;2.17;;
19897;SDS011;10111;50.814;4.572;2022-07-24T13:38:28;4.20;;;2.58;;
19897;SDS011;10111;50.814;4.572;2022-07-24T13:40:54;2.30;;;2.10;;
19897;SDS011;10111;50.814;4.572;2022-07-24T13:43:19;2.33;;;2.13;;
19897;SDS011;10111;50.814;4.572;2022-07-24T13:45:45;2.55;;;2.35;;
19897;SDS011;10111;50.814;4.572;2022-07-24T13:48:10;3.47;;;2.67;;
19897;SDS011;10111;50.814;4.572;2022-07-24T13:50:36;2.67;;;2.45;;
19897;SDS011;10111;50.814;4.572;2022-07-24T13:53:02;7.88;;;2.60;;
19897;SDS011;10111;50.814;4.572;2022-07-24T13:55:28;2.40;;;2.17;;
19897;SDS011;10111;50.814;4.572;2022-07-24T13:57:56;5.68;;;2.63;;
19897;SDS011;10111;50.814;4.572;2022-07-24T14:00:22;2.95;;;2.65;;
19897;SDS011;10111;50.814;4.572;2022-07-24T14:02:49;3.20;;;2.90;;
19897;SDS011;10111;50.814;4.572;2022-07-24T14:05:15;3.08;;;2.78;;
19897;SDS011;10111;50.814;4.572;2022-07-24T14:07:41;2.83;;;2.60;;
19897;SDS011;10111;50.814;4.572;2022-07-24T14:10:07;3.28;;;2.17;;
19897;SDS011;10111;50.814;4.572;2022-07-24T14:12:32;2.50;;;2.30;;
19897;SDS011;10111;50.814;4.572;2022-07-24T14:14:58;2.75;;;2.55;;
19897;SDS011;10111;50.814;4.572;2022-07-24T14:17:23;4.80;;;3.00;;
19897;SDS011;10111;50.814;4.572;2022-07-24T14:19:49;2.58;;;2.35;;
19897;SDS011;10111;50.814;4.572;2022-07-24T14:22:15;2.53;;;2.15;;
19897;SDS011;10111;50.814;4.572;2022-07-24T14:24:40;3.38;;;2.97;;
19897;SDS011;10111;50.814;4.572;2022-07-24T14:27:06;2.80;;;2.30;;
19897;SDS011;10111;50.814;4.572;2022-07-24T14:29:32;4.13;;;2.70;;
19897;SDS011;10111;50.814;4.572;2022-07-24T14:31:57;2.40;;;2.20;;
19897;SDS011;10111;50.814;4.572;2022-07-24T14:34:23;3.78;;;2.58;;
19897;SDS011;10111;50.814;4.572;2022-07-24T14:36:48;2.88;;;2.40;;
19897;SDS011;10111;50.814;4.572;2022-07-24T14:39:14;3.85;;;3.40;;
19897;SDS011;10111;50.814;4.572;2022-07-24T14:41:40;2.78;;;2.53;;
19897;SDS011;10111;50.814;4.572;2022-07-24T14:44:06;2.78;;;2.45;;
19897;SDS011;10111;50.814;4.572;2022-07-24T14:46:31;2.90;;;2.60;;
19897;SDS011;10111;50.814;4.572;2022-07-24T14:48:58;3.30;;;2.55;;
19897;SDS011;10111;50.814;4.572;2022-07-24T14:51:23;3.20;;;2.58;;
19897;SDS011;10111;50.814;4.572;2022-07-24T14:53:49;2.80;;;2.60;;
19897;SDS011;10111;50.814;4.572;2022-07-24T14:56:15;3.00;;;2.53;;
19897;SDS011;10111;50.814;4.572;2022-07-24T14:58:40;3.47;;;2.28;;
19897;SDS011;10111;50.814;4.572;2022-07-24T15:01:06;3.40;;;2.72;;
19897;SDS011;10111;50.814;4.572;2022-07-24T15:03:31;3.00;;;2.70;;
19897;SDS011;10111;50.814;4.572;2022-07-24T15:05:57;3.22;;;2.92;;
19897;SDS011;10111;50.814;4.572;2022-07-24T15:08:22;3.42;;;3.13;;